sensor_id;sensor_type;location;lat;lon;timestamp;temperature;humidity
6954;DHT22;3516;47.980;8.808;2022-12-11T13:01:08;19.80;94.40
6954;DHT22;3516;47.980;8.808;2022-12-11T13:03:49;19.70;93.50
6954;DHT22;3516;47.980;8.808;2022-12-11T13:06:27;19.60;93.30
6954;DHT22;3516;47.980;8.808;2022-12-11T13:08:55;19.50;93.20
6954;DHT22;3516;47.980;8.808;2022-12-11T13:11:31;19.50;93.20
6954;DHT22;3516;47.980;8.808;2022-12-11T13:14:04;19.40;93.10
6954;DHT22;3516;47.980;8.808;2022-12-11T13:16:37;19.40;93.00
6954;DHT22;3516;47.980;8.808;2022-12-11T13:19:17;19.30;93.00
6954;DHT22;3516;47.980;8.808;2022-12-11T13:21:57;19.20;93.10
6954;DHT22;3516;47.980;8.808;2022-12-11T13:24:27;19.20;93.10
6954;DHT22;3516;47.980;8.808;2022-12-11T13:26:55;19.10;93.30
6954;DHT22;3516;47.980;8.808;2022-12-11T13:29:33;19.10;93.50
6954;DHT22;3516;47.980;8.808;2022-12-11T13:32:04;19.10;93.60
6954;DHT22;3516;47.980;8.808;2022-12-11T13:34:35;19.00;93.80
6954;DHT22;3516;47.980;8.808;2022-12-11T13:37:04;19.00;93.90
6954;DHT22;3516;47.980;8.808;2022-12-11T13:39:34;19.00;94.10
6954;DHT22;3516;47.980;8.808;2022-12-11T13:42:05;18.90;94.20
6954;DHT22;3516;47.980;8.808;2022-12-11T13:44:38;18.90;94.40
6954;DHT22;3516;47.980;8.808;2022-12-11T13:47:09;18.90;94.60
6954;DHT22;3516;47.980;8.808;2022-12-11T13:49:42;18.90;94.80
6954;DHT22;3516;47.980;8.808;2022-12-11T13:52:18;18.90;94.80
6954;DHT22;3516;47.980;8.808;2022-12-11T13:54:48;18.90;94.80
6954;DHT22;3516;47.980;8.808;2022-12-11T13:57:17;18.90;94.50
6954;DHT22;3516;47.980;8.808;2022-12-11T13:59:47;18.80;94.40
6954;DHT22;3516;47.980;8.808;2022-12-11T14:02:18;18.80;94.50
6954;DHT22;3516;47.980;8.808;2022-12-11T14:04:51;18.70;94.70
6954;DHT22;3516;47.980;8.808;2022-12-11T14:07:24;18.70;94.70
6954;DHT22;3516;47.980;8.808;2022-12-11T14:09:54;18.70;94.70
6954;DHT22;3516;47.980;8.808;2022-12-11T14:12:23;18.70;94.90
6954;DHT22;3516;47.980;8.808;2022-12-11T14:14:53;18.70;94.90
6954;DHT22;3516;47.980;8.808;2022-12-11T14:17:24;18.70;94.90
6954;DHT22;3516;47.980;8.808;2022-12-11T14:19:54;18.60;95.20
6954;DHT22;3516;47.980;8.808;2022-12-11T14:22:24;18.70;95.20
6954;DHT22;3516;47.980;8.808;2022-12-11T14:24:53;18.60;95.40
6954;DHT22;3516;47.980;8.808;2022-12-11T14:27:21;18.60;95.40
6954;DHT22;3516;47.980;8.808;2022-12-11T14:29:49;18.60;95.40
6954;DHT22;3516;47.980;8.808;2022-12-11T14:32:19;18.60;95.40
6954;DHT22;3516;47.980;8.808;2022-12-11T14:34:50;18.60;95.40
6954;DHT22;3516;47.980;8.808;2022-12-11T14:37:20;18.60;95.40
6954;DHT22;3516;47.980;8.808;2022-12-11T14:39:55;18.60;95.50
6954;DHT22;3516;47.980;8.808;2022-12-11T14:42:25;18.60;95.70
6954;DHT22;3516;47.980;8.808;2022-12-11T14:44:56;18.60;95.70
6954;DHT22;3516;47.980;8.808;2022-12-11T14:47:26;18.60;95.70
6954;DHT22;3516;47.980;8.808;2022-12-11T14:49:56;18.60;95.80
6954;DHT22;3516;47.980;8.808;2022-12-11T14:52:30;18.60;95.80
6954;DHT22;3516;47.980;8.808;2022-12-11T14:55:02;18.50;95.80
6954;DHT22;3516;47.980;8.808;2022-12-11T14:57:32;18.50;95.80
6954;DHT22;3516;47.980;8.808;2022-12-11T14:59:59;18.50;96.10
6954;DHT22;3516;47.980;8.808;2022-12-11T15:02:29;18.50;96.10
6954;DHT22;3516;47.980;8.808;2022-12-11T15:07:54;18.50;96.30
6954;DHT22;3516;47.980;8.808;2022-12-11T15:10:23;18.50;96.20
6954;DHT22;3516;47.980;8.808;2022-12-11T15:12:50;18.50;96.20
6954;DHT22;3516;47.980;8.808;2022-12-11T15:15:17;18.50;96.10
6954;DHT22;3516;47.980;8.808;2022-12-11T15:17:45;18.50;96.10
6954;DHT22;3516;47.980;8.808;2022-12-11T15:20:22;18.50;96.30
6954;DHT22;3516;47.980;8.808;2022-12-11T15:22:50;18.40;96.30
6954;DHT22;3516;47.980;8.808;2022-12-11T15:25:19;18.40;96.30
6954;DHT22;3516;47.980;8.808;2022-12-11T15:27:49;18.50;96.30
6954;DHT22;3516;47.980;8.808;2022-12-11T15:30:31;18.40;96.30
6954;DHT22;3516;47.980;8.808;2022-12-11T15:33:17;18.40;96.20
6954;DHT22;3516;47.980;8.808;2022-12-11T15:35:57;18.50;96.40
6954;DHT22;3516;47.980;8.808;2022-12-11T15:38:28;18.40;96.40
6954;DHT22;3516;47.980;8.808;2022-12-11T15:40:56;18.40;96.40
6954;DHT22;3516;47.980;8.808;2022-12-11T15:43:23;18.40;96.30
6954;DHT22;3516;47.980;8.808;2022-12-11T15:45:50;18.40;96.40
6954;DHT22;3516;47.980;8.808;2022-12-11T15:48:17;18.40;96.60
6954;DHT22;3516;47.980;8.808;2022-12-11T15:50:44;18.40;96.40
6954;DHT22;3516;47.980;8.808;2022-12-11T15:53:11;18.30;96.40
6954;DHT22;3516;47.980;8.808;2022-12-11T15:55:39;18.40;96.60
6954;DHT22;3516;47.980;8.808;2022-12-11T15:58:07;18.30;96.70
6954;DHT22;3516;47.980;8.808;2022-12-11T16:00:39;18.30;96.90
6954;DHT22;3516;47.980;8.808;2022-12-11T16:03:05;18.30;96.70
6954;DHT22;3516;47.980;8.808;2022-12-11T16:05:32;18.30;96.60
6954;DHT22;3516;47.980;8.808;2022-12-11T16:07:59;18.30;96.70
6954;DHT22;3516;47.980;8.808;2022-12-11T16:10:26;18.30;96.60
6954;DHT22;3516;47.980;8.808;2022-12-11T16:12:54;18.30;96.70
6954;DHT22;3516;47.980;8.808;2022-12-11T16:15:24;18.30;96.80
6954;DHT22;3516;47.980;8.808;2022-12-11T16:17:59;18.30;96.90
6954;DHT22;3516;47.980;8.808;2022-12-11T16:20:26;18.30;96.90
6954;DHT22;3516;47.980;8.808;2022-12-11T16:22:52;18.30;96.90
6954;DHT22;3516;47.980;8.808;2022-12-11T16:25:19;18.30;97.10
6954;DHT22;3516;47.980;8.808;2022-12-11T16:27:46;18.30;97.30
6954;DHT22;3516;47.980;8.808;2022-12-11T16:30:14;18.30;97.50
6954;DHT22;3516;47.980;8.808;2022-12-11T16:32:42;18.30;97.80
6954;DHT22;3516;47.980;8.808;2022-12-11T16:35:08;18.30;97.40
6954;DHT22;3516;47.980;8.808;2022-12-11T16:37:35;18.30;97.50
6954;DHT22;3516;47.980;8.808;2022-12-11T16:40:03;18.30;97.40
6954;DHT22;3516;47.980;8.808;2022-12-11T16:42:31;18.30;97.40
6954;DHT22;3516;47.980;8.808;2022-12-11T16:45:03;18.30;97.70
6954;DHT22;3516;47.980;8.808;2022-12-11T16:47:32;18.40;97.80
6954;DHT22;3516;47.980;8.808;2022-12-11T16:49:59;18.40;98.30
6954;DHT22;3516;47.980;8.808;2022-12-11T16:52:26;18.60;98.60
6954;DHT22;3516;47.980;8.808;2022-12-11T16:54:53;18.80;98.70
6954;DHT22;3516;47.980;8.808;2022-12-11T16:57:25;18.90;98.60
6954;DHT22;3516;47.980;8.808;2022-12-11T16:59:52;18.90;98.20
6954;DHT22;3516;47.980;8.808;2022-12-11T17:02:19;19.00;98.10
6954;DHT22;3516;47.980;8.808;2022-12-11T17:04:47;18.90;97.90
6954;DHT22;3516;47.980;8.808;2022-12-11T17:07:15;18.90;97.80
6954;DHT22;3516;47.980;8.808;2022-12-11T17:09:45;18.90;97.70
6954;DHT22;3516;47.980;8.808;2022-12-11T17:12:12;18.90;97.80
6954;DHT22;3516;47.980;8.808;2022-12-11T17:14:39;18.90;97.70
6954;DHT22;3516;47.980;8.808;2022-12-11T17:17:06;18.90;97.50
6954;DHT22;3516;47.980;8.808;2022-12-11T17:19:33;18.80;97.40
6954;DHT22;3516;47.980;8.808;2022-12-11T17:22:02;18.80;97.60
6954;DHT22;3516;47.980;8.808;2022-12-11T17:24:29;18.70;98.00
6954;DHT22;3516;47.980;8.808;2022-12-11T17:26:55;18.80;98.80
6954;DHT22;3516;47.980;8.808;2022-12-11T17:29:24;18.70;99.40
6954;DHT22;3516;47.980;8.808;2022-12-11T17:31:50;18.70;99.90
6954;DHT22;3516;47.980;8.808;2022-12-11T17:34:17;18.60;99.90
6954;DHT22;3516;47.980;8.808;2022-12-11T17:36:44;18.50;99.90
6954;DHT22;3516;47.980;8.808;2022-12-11T17:39:12;18.40;99.90
6954;DHT22;3516;47.980;8.808;2022-12-11T17:41:39;18.50;99.90
6954;DHT22;3516;47.980;8.808;2022-12-11T17:44:06;18.40;99.90
6954;DHT22;3516;47.980;8.808;2022-12-11T17:46:33;18.40;99.90
6954;DHT22;3516;47.980;8.808;2022-12-11T17:49:01;18.50;99.90
6954;DHT22;3516;47.980;8.808;2022-12-11T17:51:28;18.50;99.90
6954;DHT22;3516;47.980;8.808;2022-12-11T17:53:55;18.60;99.90
6954;DHT22;3516;47.980;8.808;2022-12-11T17:56:23;18.70;99.90
6954;DHT22;3516;47.980;8.808;2022-12-11T17:58:50;18.60;99.90
6954;DHT22;3516;47.980;8.808;2022-12-11T18:01:17;18.60;99.90
6954;DHT22;3516;47.980;8.808;2022-12-11T18:03:45;18.60;99.90
6954;DHT22;3516;47.980;8.808;2022-12-11T18:06:13;18.60;99.90
6954;DHT22;3516;47.980;8.808;2022-12-11T18:08:41;18.60;99.90
6954;DHT22;3516;47.980;8.808;2022-12-11T18:11:10;18.60;99.90
6954;DHT22;3516;47.980;8.808;2022-12-11T18:13:39;18.60;99.80
6954;DHT22;3516;47.980;8.808;2022-12-11T18:16:09;18.60;99.90
6954;DHT22;3516;47.980;8.808;2022-12-11T18:18:36;18.70;99.90
6954;DHT22;3516;47.980;8.808;2022-12-11T18:21:04;18.60;99.60
6954;DHT22;3516;47.980;8.808;2022-12-11T18:23:31;18.70;99.20
6954;DHT22;3516;47.980;8.808;2022-12-11T18:25:58;18.70;99.70
6954;DHT22;3516;47.980;8.808;2022-12-11T18:28:25;18.80;99.90
6954;DHT22;3516;47.980;8.808;2022-12-11T18:30:53;18.80;99.90
6954;DHT22;3516;47.980;8.808;2022-12-11T18:33:20;18.80;99.60
6954;DHT22;3516;47.980;8.808;2022-12-11T18:35:48;18.70;99.50
6954;DHT22;3516;47.980;8.808;2022-12-11T18:38:16;18.60;99.20
6954;DHT22;3516;47.980;8.808;2022-12-11T18:40:42;18.60;98.70
6954;DHT22;3516;47.980;8.808;2022-12-11T18:43:09;18.50;97.80
6954;DHT22;3516;47.980;8.808;2022-12-11T18:45:38;18.40;97.30
6954;DHT22;3516;47.980;8.808;2022-12-11T18:48:07;18.40;97.20
6954;DHT22;3516;47.980;8.808;2022-12-11T18:50:34;18.40;96.90
6954;DHT22;3516;47.980;8.808;2022-12-11T18:53:01;18.20;97.10
6954;DHT22;3516;47.980;8.808;2022-12-11T18:55:28;18.30;96.80
6954;DHT22;3516;47.980;8.808;2022-12-11T18:57:55;18.30;97.10
6954;DHT22;3516;47.980;8.808;2022-12-11T19:00:22;18.00;97.40
6954;DHT22;3516;47.980;8.808;2022-12-11T19:02:49;18.20;98.20
6954;DHT22;3516;47.980;8.808;2022-12-11T19:05:18;18.40;99.90
6954;DHT22;3516;47.980;8.808;2022-12-11T19:07:45;18.50;99.90
6954;DHT22;3516;47.980;8.808;2022-12-11T19:10:12;18.50;99.90
6954;DHT22;3516;47.980;8.808;2022-12-11T19:12:39;18.20;99.90
6954;DHT22;3516;47.980;8.808;2022-12-11T19:15:08;18.00;99.90
6954;DHT22;3516;47.980;8.808;2022-12-11T19:17:36;17.80;99.90
6954;DHT22;3516;47.980;8.808;2022-12-11T19:20:03;17.90;99.90
6954;DHT22;3516;47.980;8.808;2022-12-11T19:22:32;17.90;99.90
6954;DHT22;3516;47.980;8.808;2022-12-11T19:24:58;17.90;99.60
6954;DHT22;3516;47.980;8.808;2022-12-11T19:27:25;17.90;99.50
6954;DHT22;3516;47.980;8.808;2022-12-11T19:29:52;18.00;99.60
6954;DHT22;3516;47.980;8.808;2022-12-11T19:32:19;17.90;99.90
6954;DHT22;3516;47.980;8.808;2022-12-11T19:34:46;17.80;99.90
6954;DHT22;3516;47.980;8.808;2022-12-11T19:37:13;17.80;99.70
6954;DHT22;3516;47.980;8.808;2022-12-11T19:39:41;17.70;99.50
6954;DHT22;3516;47.980;8.808;2022-12-11T19:42:07;17.70;99.50
6954;DHT22;3516;47.980;8.808;2022-12-11T19:44:34;17.70;99.30
6954;DHT22;3516;47.980;8.808;2022-12-11T19:47:01;17.60;99.20
6954;DHT22;3516;47.980;8.808;2022-12-11T19:49:28;17.70;99.10
6954;DHT22;3516;47.980;8.808;2022-12-11T19:51:54;17.70;99.00
6954;DHT22;3516;47.980;8.808;2022-12-11T19:54:21;17.70;99.00
6954;DHT22;3516;47.980;8.808;2022-12-11T19:56:50;17.60;98.40
6954;DHT22;3516;47.980;8.808;2022-12-11T19:59:17;17.70;97.80
6954;DHT22;3516;47.980;8.808;2022-12-11T20:01:44;17.60;97.70
6954;DHT22;3516;47.980;8.808;2022-12-11T20:04:13;17.60;97.80
6954;DHT22;3516;47.980;8.808;2022-12-11T20:06:43;17.60;97.10
6954;DHT22;3516;47.980;8.808;2022-12-11T20:09:11;17.60;97.40
6954;DHT22;3516;47.980;8.808;2022-12-11T20:11:40;17.50;97.50
6954;DHT22;3516;47.980;8.808;2022-12-11T20:14:09;17.60;98.60
6954;DHT22;3516;47.980;8.808;2022-12-11T20:16:41;17.80;99.90
6954;DHT22;3516;47.980;8.808;2022-12-11T20:19:08;18.00;99.90
6954;DHT22;3516;47.980;8.808;2022-12-11T20:21:35;18.20;99.90
6954;DHT22;3516;47.980;8.808;2022-12-11T20:24:02;18.40;99.90
6954;DHT22;3516;47.980;8.808;2022-12-11T20:26:28;18.60;99.90
6954;DHT22;3516;47.980;8.808;2022-12-11T20:28:57;18.80;99.90
6954;DHT22;3516;47.980;8.808;2022-12-11T20:31:25;18.80;99.90
6954;DHT22;3516;47.980;8.808;2022-12-11T20:33:55;18.90;99.90
6954;DHT22;3516;47.980;8.808;2022-12-11T20:36:23;19.00;99.90
6954;DHT22;3516;47.980;8.808;2022-12-11T20:38:50;19.00;99.90
6954;DHT22;3516;47.980;8.808;2022-12-11T20:41:19;19.10;99.90
6954;DHT22;3516;47.980;8.808;2022-12-11T20:43:46;19.10;99.90
6954;DHT22;3516;47.980;8.808;2022-12-11T20:46:14;19.10;99.70
6954;DHT22;3516;47.980;8.808;2022-12-11T20:48:44;19.00;99.90
6954;DHT22;3516;47.980;8.808;2022-12-11T20:51:13;19.00;99.60
6954;DHT22;3516;47.980;8.808;2022-12-11T20:53:41;19.00;99.90
6954;DHT22;3516;47.980;8.808;2022-12-11T20:56:08;18.90;99.30
6954;DHT22;3516;47.980;8.808;2022-12-11T20:58:35;18.90;99.20
6954;DHT22;3516;47.980;8.808;2022-12-11T21:01:02;18.90;99.50
6954;DHT22;3516;47.980;8.808;2022-12-11T21:03:29;18.90;99.50
6954;DHT22;3516;47.980;8.808;2022-12-11T21:05:58;18.90;99.40
6954;DHT22;3516;47.980;8.808;2022-12-11T21:08:25;18.90;99.60
6954;DHT22;3516;47.980;8.808;2022-12-11T21:10:52;18.90;99.90
6954;DHT22;3516;47.980;8.808;2022-12-11T21:13:18;18.80;99.90
6954;DHT22;3516;47.980;8.808;2022-12-11T21:15:45;18.80;99.90
6954;DHT22;3516;47.980;8.808;2022-12-11T21:18:16;18.80;96.60
6954;DHT22;3516;47.980;8.808;2022-12-11T21:20:42;18.80;97.00
6954;DHT22;3516;47.980;8.808;2022-12-11T21:23:10;18.80;97.10
6954;DHT22;3516;47.980;8.808;2022-12-11T21:25:37;18.70;97.10
6954;DHT22;3516;47.980;8.808;2022-12-11T21:28:05;18.70;97.10
6954;DHT22;3516;47.980;8.808;2022-12-11T21:30:32;18.70;97.60
6954;DHT22;3516;47.980;8.808;2022-12-11T21:32:59;18.60;98.00
6954;DHT22;3516;47.980;8.808;2022-12-11T21:35:26;18.70;98.60
6954;DHT22;3516;47.980;8.808;2022-12-11T21:37:53;18.70;98.70
6954;DHT22;3516;47.980;8.808;2022-12-11T21:40:21;18.60;99.10
6954;DHT22;3516;47.980;8.808;2022-12-11T21:42:47;18.70;99.60
6954;DHT22;3516;47.980;8.808;2022-12-11T21:45:14;18.70;99.90
6954;DHT22;3516;47.980;8.808;2022-12-11T21:47:41;18.60;99.90
6954;DHT22;3516;47.980;8.808;2022-12-11T21:50:08;18.70;99.90
6954;DHT22;3516;47.980;8.808;2022-12-11T21:52:36;18.70;99.90
6954;DHT22;3516;47.980;8.808;2022-12-11T21:55:03;18.60;99.90
6954;DHT22;3516;47.980;8.808;2022-12-11T21:57:31;18.60;99.90
6954;DHT22;3516;47.980;8.808;2022-12-11T21:59:58;18.60;99.90
6954;DHT22;3516;47.980;8.808;2022-12-11T22:02:25;18.70;99.90
6954;DHT22;3516;47.980;8.808;2022-12-11T22:04:52;18.70;99.90
6954;DHT22;3516;47.980;8.808;2022-12-11T22:07:18;18.70;99.90
6954;DHT22;3516;47.980;8.808;2022-12-11T22:09:45;18.80;99.90
6954;DHT22;3516;47.980;8.808;2022-12-11T22:12:20;18.80;99.90
6954;DHT22;3516;47.980;8.808;2022-12-11T22:14:49;18.80;99.90
6954;DHT22;3516;47.980;8.808;2022-12-11T22:17:15;18.80;99.90
6954;DHT22;3516;47.980;8.808;2022-12-11T22:19:43;18.80;99.90
6954;DHT22;3516;47.980;8.808;2022-12-11T22:22:10;18.80;99.90
6954;DHT22;3516;47.980;8.808;2022-12-11T22:24:37;18.80;99.90
6954;DHT22;3516;47.980;8.808;2022-12-11T22:27:05;18.80;99.90
6954;DHT22;3516;47.980;8.808;2022-12-11T22:29:32;18.80;99.90
6954;DHT22;3516;47.980;8.808;2022-12-11T22:32:00;18.80;99.90
6954;DHT22;3516;47.980;8.808;2022-12-11T22:34:28;18.80;99.90
6954;DHT22;3516;47.980;8.808;2022-12-11T22:36:54;18.70;99.90
6954;DHT22;3516;47.980;8.808;2022-12-11T22:39:22;18.70;99.90
6954;DHT22;3516;47.980;8.808;2022-12-11T22:41:49;18.60;99.90
6954;DHT22;3516;47.980;8.808;2022-12-11T22:44:18;18.70;99.90
6954;DHT22;3516;47.980;8.808;2022-12-11T22:46:45;18.60;99.90
6954;DHT22;3516;47.980;8.808;2022-12-11T22:49:13;18.70;99.90
6954;DHT22;3516;47.980;8.808;2022-12-11T22:51:40;18.60;99.90
6954;DHT22;3516;47.980;8.808;2022-12-11T22:54:07;18.60;99.90
6954;DHT22;3516;47.980;8.808;2022-12-11T22:56:33;18.60;99.90
6954;DHT22;3516;47.980;8.808;2022-12-11T22:59:00;18.60;99.90
6954;DHT22;3516;47.980;8.808;2022-12-11T23:01:27;18.70;99.90
6954;DHT22;3516;47.980;8.808;2022-12-11T23:03:54;18.60;99.90
6954;DHT22;3516;47.980;8.808;2022-12-11T23:06:23;18.60;99.90
6954;DHT22;3516;47.980;8.808;2022-12-11T23:08:51;18.60;99.90
6954;DHT22;3516;47.980;8.808;2022-12-11T23:11:22;18.60;99.90
6954;DHT22;3516;47.980;8.808;2022-12-11T23:13:50;18.60;99.90
